Time;durP1;ratioP1;P1;durP2;ratioP2;P2;SDS_P1;SDS_P2;PMS_P1;PMS_P2;Temp;Humidity;BMP_temperature;BMP_pressure;BME280_temperature;BME280_humidity;BME280_pressure;Samples;Min_cycle;Max_cycle;Signal;HPM_P1;HPM_P2
2022/04/21 00:02:45;;;;;;;7.03;6.33;;;7.70;99.90;;;;;;5047676;28;20664;-68
2022/04/21 00:05:34;;;;;;;8.70;7.30;;;7.70;99.90;;;;;;5045193;28;20787;-68
2022/04/21 00:08:23;;;;;;;8.70;7.77;;;7.70;99.90;;;;;;5044781;28;20891;-68
2022/04/21 00:11:11;;;;;;;12.37;8.90;;;7.70;99.90;;;;;;5044075;28;20620;-68
2022/04/21 00:14:00;;;;;;;11.33;9.47;;;7.60;99.90;;;;;;5044167;28;20652;-68
2022/04/21 00:16:48;;;;;;;12.83;9.67;;;7.60;99.90;;;;;;5046757;28;20563;-68
2022/04/21 00:19:36;;;;;;;12.50;9.40;;;7.50;99.90;;;;;;5039473;28;20548;-68
2022/04/21 00:25:32;;;;;;;17.97;12.30;;;7.50;99.90;;;;;;5038399;28;20542;-68
2022/04/21 00:28:21;;;;;;;17.47;11.77;;;7.50;99.90;;;;;;5047275;28;20759;-68
2022/04/21 00:31:09;;;;;;;21.37;13.40;;;7.40;99.90;;;;;;5032665;28;20501;-69
2022/04/21 00:33:57;;;;;;;21.03;13.73;;;7.40;99.90;;;;;;5046505;28;20483;-69
2022/04/21 00:36:45;;;;;;;17.40;11.10;;;7.40;99.90;;;;;;5046484;28;20608;-69
2022/04/21 00:39:33;;;;;;;11.83;9.17;;;7.40;99.90;;;;;;5055214;28;20928;-69
2022/04/21 00:42:24;;;;;;;14.00;9.20;;;7.40;99.90;;;;;;5048161;28;20954;-68
2022/04/21 00:45:12;;;;;;;11.50;8.50;;;7.40;99.90;;;;;;5044704;28;20879;-68
2022/04/21 00:48:03;;;;;;;11.93;8.77;;;7.30;99.90;;;;;;5042099;28;20604;-69
2022/04/21 00:50:51;;;;;;;16.03;11.10;;;7.30;99.90;;;;;;5044603;28;20636;-69
2022/04/21 00:53:39;;;;;;;17.40;12.20;;;7.30;99.90;;;;;;5046341;28;20655;-69
2022/04/21 00:56:28;;;;;;;14.10;9.90;;;7.20;99.90;;;;;;5049810;28;20454;-69
2022/04/21 00:59:17;;;;;;;16.50;9.17;;;7.20;99.90;;;;;;5048452;28;20477;-68
2022/04/21 01:05:11;;;;;;;12.90;9.43;;;7.20;99.90;;;;;;5043113;28;21439;-69
2022/04/21 01:08:02;;;;;;;21.00;12.77;;;7.20;99.90;;;;;;5044633;28;20486;-68
2022/04/21 01:10:50;;;;;;;16.87;11.37;;;7.20;99.90;;;;;;5040384;28;20552;-68
2022/04/21 01:13:38;;;;;;;13.50;10.17;;;7.10;99.90;;;;;;5044585;28;20962;-68
2022/04/21 01:16:28;;;;;;;10.33;8.70;;;7.10;99.90;;;;;;5040506;28;20626;-69
2022/04/21 01:19:16;;;;;;;14.07;9.43;;;7.10;99.90;;;;;;5038842;28;20510;-69
2022/04/21 01:22:06;;;;;;;13.47;9.93;;;7.10;99.90;;;;;;5056561;28;20552;-69
2022/04/21 01:24:54;;;;;;;14.60;10.10;;;7.10;99.90;;;;;;5047541;28;20517;-69
2022/04/21 01:27:43;;;;;;;19.03;12.50;;;7.10;99.90;;;;;;5045281;28;20884;-70
2022/04/21 01:30:31;;;;;;;15.13;10.77;;;7.00;99.90;;;;;;5043416;28;20465;-69
2022/04/21 01:33:19;;;;;;;17.90;11.70;;;7.00;99.90;;;;;;5045963;28;21016;-69
2022/04/21 01:36:08;;;;;;;18.53;12.23;;;7.00;99.90;;;;;;5045880;28;20447;-69
2022/04/21 01:42:03;;;;;;;16.33;10.67;;;7.00;99.90;;;;;;5041678;28;21034;-69
2022/04/21 01:44:51;;;;;;;10.77;8.70;;;7.00;99.90;;;;;;5040250;28;20517;-69
2022/04/21 01:47:40;;;;;;;10.70;8.07;;;7.00;99.90;;;;;;5046241;28;20459;-69
2022/04/21 01:50:28;;;;;;;8.83;6.97;;;7.00;99.90;;;;;;5040620;28;20518;-69
2022/04/21 01:53:17;;;;;;;12.77;9.27;;;7.00;99.90;;;;;;5043408;28;21091;-69
2022/04/21 01:56:06;;;;;;;9.60;8.60;;;7.00;99.90;;;;;;5048047;28;20592;-69
2022/04/21 01:58:54;;;;;;;12.77;9.73;;;6.90;99.90;;;;;;5043935;28;20477;-69
2022/04/21 02:01:42;;;;;;;10.37;8.77;;;6.90;99.90;;;;;;5050154;28;20446;-69
2022/04/21 02:04:31;;;;;;;12.37;9.90;;;6.90;99.90;;;;;;5045304;28;20825;-69
2022/04/21 02:07:19;;;;;;;14.87;10.80;;;6.80;99.90;;;;;;5039176;28;20591;-70
2022/04/21 02:10:08;;;;;;;16.60;10.90;;;6.80;99.90;;;;;;5046158;28;20966;-69
2022/04/21 02:12:58;;;;;;;14.93;10.83;;;6.80;99.90;;;;;;5045199;28;20544;-69
2022/04/21 02:15:46;;;;;;;15.57;11.20;;;6.80;99.90;;;;;;5048348;28;20549;-69
2022/04/21 02:18:36;;;;;;;15.17;10.50;;;6.70;99.90;;;;;;5048384;28;20459;-69
2022/04/21 02:21:24;;;;;;;13.90;10.00;;;6.70;99.90;;;;;;5040264;28;20550;-69
2022/04/21 02:24:12;;;;;;;13.27;10.50;;;6.70;99.90;;;;;;5041723;28;20934;-69
2022/04/21 02:27:00;;;;;;;16.13;10.20;;;6.60;99.90;;;;;;5045779;28;20462;-69
2022/04/21 02:29:52;;;;;;;13.93;9.90;;;6.60;99.90;;;;;;5041337;28;20485;-69
2022/04/21 02:32:40;;;;;;;16.03;10.77;;;6.70;99.90;;;;;;5047725;28;20485;-69
2022/04/21 02:35:29;;;;;;;14.57;10.43;;;6.60;99.90;;;;;;5044870;28;20533;-69
2022/04/21 02:38:19;;;;;;;18.83;12.80;;;6.60;99.90;;;;;;5047555;28;20551;-69
2022/04/21 02:41:07;;;;;;;17.43;11.60;;;6.60;99.90;;;;;;5050374;28;20451;-69
2022/04/21 02:43:55;;;;;;;15.33;10.70;;;6.60;99.90;;;;;;5052028;28;20799;-69
2022/04/21 02:46:45;;;;;;;16.37;10.57;;;6.60;99.90;;;;;;5054912;28;20541;-69
2022/04/21 02:49:33;;;;;;;15.00;9.83;;;6.60;99.90;;;;;;5050243;28;20574;-69
2022/04/21 02:52:22;;;;;;;14.10;10.90;;;6.50;99.90;;;;;;5041839;28;20462;-69
2022/04/21 02:58:19;;;;;;;18.83;12.20;;;6.50;99.90;;;;;;5049591;28;20465;-69
2022/04/21 03:01:08;;;;;;;20.00;12.07;;;6.50;99.90;;;;;;5052500;28;20455;-69
2022/04/21 03:03:57;;;;;;;16.60;11.60;;;6.50;99.90;;;;;;5046452;28;20573;-69
2022/04/21 03:06:45;;;;;;;14.80;11.27;;;6.50;99.90;;;;;;5047900;28;20993;-69
2022/04/21 03:09:33;;;;;;;13.40;10.23;;;6.50;99.90;;;;;;5049150;28;20666;-69
2022/04/21 03:12:23;;;;;;;12.17;9.33;;;6.50;99.90;;;;;;5050814;28;21012;-69
2022/04/21 03:15:12;;;;;;;16.30;10.60;;;6.50;99.90;;;;;;5044041;28;20608;-69
2022/04/21 03:18:00;;;;;;;15.30;10.43;;;6.50;99.90;;;;;;5032490;28;20502;-70
2022/04/21 03:27:02;;;;;;;13.17;10.53;;;6.40;99.90;;;;;;5048820;28;20457;-69
2022/04/21 03:29:51;;;;;;;12.67;9.17;;;6.40;99.90;;;;;;5049205;28;20851;-69
2022/04/21 03:32:40;;;;;;;10.90;8.43;;;6.40;99.90;;;;;;5051539;28;20475;-69
2022/04/21 03:35:28;;;;;;;11.60;8.00;;;6.40;99.90;;;;;;5049000;28;20514;-69
2022/04/21 03:38:18;;;;;;;9.53;8.03;;;6.40;99.90;;;;;;5056737;28;20563;-69
2022/04/21 03:41:06;;;;;;;9.37;7.33;;;6.40;99.90;;;;;;5054247;28;21009;-69
2022/04/21 03:43:54;;;;;;;9.97;7.83;;;6.40;99.90;;;;;;5051502;28;20578;-69
2022/04/21 03:46:42;;;;;;;10.10;8.30;;;6.30;99.90;;;;;;5050505;28;20457;-69
2022/04/21 03:49:31;;;;;;;11.50;7.30;;;6.30;99.90;;;;;;5044803;28;20876;-69
2022/04/21 03:52:20;;;;;;;10.10;8.43;;;6.30;99.90;;;;;;5055686;28;20461;-68
2022/04/21 03:55:11;;;;;;;9.90;7.83;;;6.20;99.90;;;;;;5054332;28;20588;-69
2022/04/21 03:57:59;;;;;;;11.50;9.00;;;6.20;99.90;;;;;;5049807;28;20564;-69
2022/04/21 04:00:48;;;;;;;10.80;8.50;;;6.20;99.90;;;;;;5054500;28;20584;-69
2022/04/21 04:03:36;;;;;;;9.87;7.60;;;6.20;99.90;;;;;;5048552;28;20477;-69
2022/04/21 04:12:38;;;;;;;9.83;8.10;;;6.10;99.90;;;;;;5046430;28;20475;-69
2022/04/21 04:15:27;;;;;;;11.47;8.70;;;6.00;99.90;;;;;;5049304;28;20950;-69
2022/04/21 04:18:18;;;;;;;11.90;9.30;;;6.00;99.90;;;;;;5054257;28;20977;-69
2022/04/21 04:21:07;;;;;;;11.77;8.90;;;6.00;99.90;;;;;;5051403;28;21036;-69
2022/04/21 04:23:55;;;;;;;14.63;10.93;;;6.00;99.90;;;;;;5049200;28;20625;-70
2022/04/21 04:26:43;;;;;;;21.30;13.90;;;6.00;99.90;;;;;;5046056;28;20470;-70
2022/04/21 04:29:32;;;;;;;17.63;11.80;;;6.00;99.90;;;;;;5047138;28;20535;-70
2022/04/21 04:32:21;;;;;;;11.40;9.80;;;5.90;99.90;;;;;;5055732;28;20548;-69
2022/04/21 04:35:09;;;;;;;10.60;8.43;;;6.00;99.90;;;;;;5042654;28;20462;-70
2022/04/21 04:37:57;;;;;;;13.67;9.17;;;6.00;99.90;;;;;;5047048;28;20463;-69
2022/04/21 04:40:46;;;;;;;13.73;9.97;;;6.00;99.90;;;;;;5028620;28;20573;-70
2022/04/21 04:43:33;;;;;;;9.77;8.77;;;6.00;99.90;;;;;;5040817;28;20563;-70
2022/04/21 04:46:38;;;;;;;10.93;7.83;;;6.00;99.90;;;;;;5049232;28;21001;-69
2022/04/21 04:49:27;;;;;;;10.87;8.43;;;6.10;99.90;;;;;;5048386;28;20548;-70
2022/04/21 04:52:15;;;;;;;11.93;9.00;;;6.10;99.90;;;;;;5049944;28;20633;-69
2022/04/21 04:55:04;;;;;;;12.03;8.67;;;6.20;99.90;;;;;;5049292;28;20512;-69
2022/04/21 04:57:52;;;;;;;11.87;8.23;;;6.20;99.90;;;;;;5041402;28;20557;-69
2022/04/21 05:00:40;;;;;;;8.13;7.07;;;6.30;99.90;;;;;;5048842;28;20624;-74
2022/04/21 05:03:30;;;;;;;9.37;8.03;;;6.30;99.90;;;;;;5051985;28;20475;-69
2022/04/21 05:06:18;;;;;;;12.30;8.17;;;6.40;99.90;;;;;;5049267;28;20639;-70
2022/04/21 05:09:09;;;;;;;7.80;6.63;;;6.40;99.90;;;;;;5046272;28;20601;-70
2022/04/21 05:11:57;;;;;;;8.67;7.03;;;6.50;99.90;;;;;;5042345;28;20530;-70
2022/04/21 05:14:46;;;;;;;7.47;6.77;;;6.50;99.90;;;;;;5044730;28;20486;-70
2022/04/21 05:17:34;;;;;;;8.37;6.80;;;6.50;99.90;;;;;;5051110;28;20549;-70
2022/04/21 05:20:44;;;;;;;6.80;5.90;;;6.60;99.90;;;;;;5053349;28;21094;-70
2022/04/21 05:23:35;;;;;;;7.20;6.03;;;6.70;99.90;;;;;;5046703;28;20481;-70
2022/04/21 05:26:24;;;;;;;7.63;6.77;;;6.70;99.90;;;;;;5041817;28;20617;-70
2022/04/21 05:32:19;;;;;;;6.27;5.63;;;6.90;99.90;;;;;;5008963;28;20446;-70
2022/04/21 05:35:09;;;;;;;8.07;7.30;;;6.90;99.90;;;;;;5032652;28;20523;-70
2022/04/21 05:37:59;;;;;;;8.23;6.50;;;6.90;99.90;;;;;;5030113;28;20553;-70
2022/04/21 05:40:48;;;;;;;6.40;5.87;;;7.00;99.90;;;;;;5025906;28;20486;-70
2022/04/21 05:43:42;;;;;;;8.37;6.53;;;7.10;99.90;;;;;;5028284;28;20595;-70
2022/04/21 05:46:31;;;;;;;6.20;5.60;;;7.20;99.90;;;;;;5029408;28;20497;-70
2022/04/21 05:49:20;;;;;;;9.10;7.10;;;7.30;99.90;;;;;;5041209;28;20485;-70
2022/04/21 05:52:09;;;;;;;6.77;5.50;;;7.30;99.90;;;;;;5047782;28;21050;-70
2022/04/21 05:54:59;;;;;;;6.60;6.00;;;7.40;99.90;;;;;;5041961;28;20840;-70
2022/04/21 05:57:47;;;;;;;7.67;5.67;;;7.50;99.90;;;;;;5043053;28;20545;-69
2022/04/21 06:00:35;;;;;;;5.73;5.23;;;7.60;99.90;;;;;;5045665;28;20473;-70
2022/04/21 06:03:23;;;;;;;7.20;6.43;;;7.80;99.90;;;;;;5043881;28;20482;-69
2022/04/21 06:06:12;;;;;;;5.97;5.37;;;7.90;99.90;;;;;;5039368;28;20601;-70
2022/04/21 06:09:00;;;;;;;5.70;4.97;;;8.00;99.90;;;;;;5047913;28;20465;-70
2022/04/21 06:11:50;;;;;;;7.37;5.40;;;8.10;99.90;;;;;;5035787;28;20462;-70
2022/04/21 06:14:38;;;;;;;5.33;4.83;;;8.20;99.90;;;;;;5046919;28;20497;-70
2022/04/21 06:17:26;;;;;;;4.80;4.30;;;8.30;99.90;;;;;;5037376;28;20478;-70
2022/04/21 06:20:14;;;;;;;5.87;5.27;;;8.40;99.90;;;;;;5037077;28;20544;-69
2022/04/21 06:23:03;;;;;;;5.40;4.90;;;8.40;99.90;;;;;;5030760;28;20505;-70
2022/04/21 06:25:58;;;;;;;5.67;4.57;;;8.50;99.90;;;;;;5042594;28;21131;-70
2022/04/21 06:28:48;;;;;;;6.53;4.70;;;8.50;99.90;;;;;;5036621;28;20497;-68
2022/04/21 06:31:36;;;;;;;6.57;5.47;;;8.60;99.90;;;;;;5041447;28;20530;-70
2022/04/21 06:34:25;;;;;;;4.70;4.20;;;8.60;99.90;;;;;;5039999;28;20481;-68
2022/04/21 06:37:13;;;;;;;6.77;4.50;;;8.70;99.90;;;;;;5044421;28;20556;-68
2022/04/21 06:40:07;;;;;;;4.80;4.40;;;8.80;99.90;;;;;;5046942;28;20506;-70
2022/04/21 06:42:55;;;;;;;5.03;4.23;;;8.90;99.90;;;;;;5036565;28;20470;-69
2022/04/21 06:48:58;;;;;;;4.60;4.13;;;9.10;99.90;;;;;;5046178;28;20569;-70
2022/04/21 06:51:46;;;;;;;4.67;4.27;;;9.10;99.90;;;;;;5039783;28;20596;-69
2022/04/21 06:54:34;;;;;;;5.43;4.80;;;9.20;99.90;;;;;;5037894;28;20521;-69
2022/04/21 06:57:23;;;;;;;5.87;5.23;;;9.30;99.90;;;;;;5037227;28;20504;-69
2022/04/21 07:00:12;;;;;;;5.23;4.27;;;9.30;99.90;;;;;;5043413;28;20473;-69
2022/04/21 07:03:02;;;;;;;4.40;3.67;;;9.40;99.90;;;;;;5040310;28;20485;-69
2022/04/21 07:05:52;;;;;;;5.97;3.90;;;9.50;99.90;;;;;;5043019;28;20493;-69
2022/04/21 07:08:40;;;;;;;3.70;3.27;;;9.60;99.90;;;;;;5045441;28;24441;-69
2022/04/21 07:11:28;;;;;;;7.10;4.80;;;9.70;99.90;;;;;;5041152;28;21071;-70
2022/04/21 07:14:17;;;;;;;4.27;3.87;;;9.80;99.90;;;;;;5033452;28;20477;-69
2022/04/21 07:17:05;;;;;;;4.40;3.70;;;9.90;99.90;;;;;;5040500;28;20539;-69
2022/04/21 07:19:55;;;;;;;4.83;3.50;;;10.10;99.90;;;;;;5038670;28;20486;-71
2022/04/21 07:22:43;;;;;;;4.63;3.53;;;10.20;99.90;;;;;;5032268;28;20559;-71
2022/04/21 07:25:32;;;;;;;4.03;3.67;;;10.30;99.90;;;;;;5032971;28;20519;-70
2022/04/21 07:28:20;;;;;;;3.97;3.60;;;10.40;99.90;;;;;;5045340;28;20455;-70
2022/04/21 07:31:08;;;;;;;4.20;2.90;;;10.40;99.90;;;;;;5044448;28;20798;-71
2022/04/21 07:33:57;;;;;;;4.43;4.03;;;10.50;99.90;;;;;;5048484;28;20490;-71
2022/04/21 07:36:47;;;;;;;3.80;3.10;;;10.60;99.90;;;;;;5048246;28;20450;-70
2022/04/21 07:39:36;;;;;;;3.50;3.10;;;10.70;99.90;;;;;;5047535;28;20536;-71
2022/04/21 07:42:24;;;;;;;5.00;3.23;;;10.80;99.90;;;;;;5050026;28;20482;-71
2022/04/21 07:45:13;;;;;;;3.33;3.13;;;10.90;99.90;;;;;;5045976;28;20492;-71
2022/04/21 07:48:02;;;;;;;4.10;3.70;;;11.00;99.90;;;;;;5052364;28;20478;-71
2022/04/21 07:50:50;;;;;;;3.00;2.80;;;11.10;99.90;;;;;;5048439;28;20487;-71
2022/04/21 07:53:43;;;;;;;3.50;3.20;;;11.10;99.90;;;;;;5043845;28;20553;-71
2022/04/21 07:56:38;;;;;;;3.90;3.60;;;11.20;99.90;;;;;;5055022;28;20458;-71
2022/04/21 07:59:26;;;;;;;5.07;3.47;;;11.30;99.90;;;;;;5048209;28;21163;-71
2022/04/21 08:02:16;;;;;;;3.10;2.90;;;11.40;99.90;;;;;;5048920;28;20522;-70
2022/04/21 08:05:04;;;;;;;3.90;3.60;;;11.50;99.90;;;;;;5048381;28;20501;-70
2022/04/21 08:07:53;;;;;;;3.83;3.20;;;11.60;99.90;;;;;;5046406;28;21218;-71
2022/04/21 08:10:42;;;;;;;3.10;2.63;;;11.60;99.90;;;;;;5045529;28;20555;-71
2022/04/21 08:13:30;;;;;;;4.50;3.03;;;11.70;99.90;;;;;;5047780;28;21018;-71
2022/04/21 08:16:19;;;;;;;3.87;3.20;;;11.90;99.90;;;;;;5037328;28;20568;-70
2022/04/21 08:19:07;;;;;;;5.87;3.63;;;12.00;99.90;;;;;;5048103;28;20982;-71
2022/04/21 08:21:55;;;;;;;3.93;2.97;;;12.10;99.90;;;;;;5054889;28;20489;-71
2022/04/21 08:34:22;;;;;;;4.70;3.50;;;12.50;99.90;;;;;;5048556;28;20482;-70
2022/04/21 08:37:14;;;;;;;3.10;2.80;;;12.50;99.90;;;;;;5047674;28;20458;-71
2022/04/21 08:40:03;;;;;;;4.30;3.40;;;12.60;99.90;;;;;;5045067;28;20891;-70
2022/04/21 08:42:55;;;;;;;3.00;2.50;;;12.60;99.90;;;;;;5043125;28;20555;-71
2022/04/21 08:45:44;;;;;;;2.80;2.40;;;12.70;99.90;;;;;;5045453;28;21061;-71
2022/04/21 08:48:34;;;;;;;2.60;2.40;;;12.70;99.90;;;;;;5052584;28;20473;-71
2022/04/21 08:51:23;;;;;;;3.00;2.70;;;12.80;99.90;;;;;;5046229;28;20652;-71
2022/04/21 08:54:11;;;;;;;3.10;2.80;;;12.90;99.90;;;;;;5049333;28;20488;-70
2022/04/21 08:57:00;;;;;;;3.90;2.90;;;13.00;99.90;;;;;;5051176;28;20447;-71
2022/04/21 08:59:49;;;;;;;4.73;4.20;;;13.00;99.90;;;;;;5038816;28;20500;-70
2022/04/21 09:02:39;;;;;;;3.43;3.13;;;13.10;99.90;;;;;;5045211;28;21202;-71
2022/04/21 09:05:29;;;;;;;2.87;2.67;;;13.10;99.90;;;;;;5048826;28;21103;-71
2022/04/21 09:08:22;;;;;;;3.00;2.80;;;13.20;99.90;;;;;;5042344;28;20503;-72
2022/04/21 09:11:18;;;;;;;7.47;3.63;;;13.30;99.90;;;;;;5055545;28;20827;-71
2022/04/21 09:14:06;;;;;;;3.63;2.80;;;13.30;99.90;;;;;;5042502;28;20582;-71
2022/04/21 09:17:05;;;;;;;3.90;3.20;;;13.30;99.90;;;;;;5043321;28;20466;-71
2022/04/21 09:19:57;;;;;;;4.50;3.23;;;13.30;99.90;;;;;;5049756;28;20601;-71
2022/04/21 09:22:53;;;;;;;3.33;2.77;;;13.40;99.90;;;;;;5042348;28;20485;-71
2022/04/21 09:25:48;;;;;;;3.30;3.00;;;13.50;99.90;;;;;;5042561;28;20461;-71
2022/04/21 09:28:36;;;;;;;4.17;3.00;;;13.60;99.90;;;;;;5036719;28;20523;-73
2022/04/21 09:31:27;;;;;;;4.77;3.00;;;13.70;99.90;;;;;;5034368;28;20553;-71
2022/04/21 09:34:17;;;;;;;2.90;2.50;;;13.70;99.90;;;;;;5047527;28;20486;-71
2022/04/21 09:37:05;;;;;;;3.63;3.10;;;13.80;99.90;;;;;;5050914;28;20599;-71
2022/04/21 09:39:54;;;;;;;3.50;2.83;;;13.80;99.90;;;;;;5046873;28;20483;-71
2022/04/21 09:42:42;;;;;;;5.30;2.80;;;13.90;99.90;;;;;;5045551;28;23700;-71
2022/04/21 09:48:39;;;;;;;7.87;3.50;;;14.10;99.90;;;;;;5034381;28;20488;-71
2022/04/21 09:51:29;;;;;;;3.90;3.50;;;14.20;99.90;;;;;;5047215;28;20491;-71
2022/04/21 09:54:17;;;;;;;3.90;3.60;;;14.20;99.90;;;;;;5040500;28;20470;-71
2022/04/21 09:57:06;;;;;;;4.80;3.67;;;14.30;99.90;;;;;;5044134;28;20530;-72
2022/04/21 09:59:55;;;;;;;3.23;2.73;;;14.30;99.90;;;;;;5043805;28;21052;-72
2022/04/21 10:02:45;;;;;;;2.80;2.60;;;14.30;99.90;;;;;;5042416;28;20481;-71
2022/04/21 10:05:35;;;;;;;4.13;2.50;;;14.50;99.90;;;;;;5042930;28;20450;-72
2022/04/21 10:08:25;;;;;;;3.60;3.30;;;14.50;99.90;;;;;;5042167;28;20526;-71
2022/04/21 10:11:14;;;;;;;3.13;2.83;;;14.60;99.90;;;;;;5044585;28;20451;-71
2022/04/21 10:14:05;;;;;;;3.40;2.57;;;14.70;99.90;;;;;;5044918;28;20481;-71
2022/04/21 10:16:53;;;;;;;3.57;2.73;;;14.80;99.90;;;;;;5046863;28;20551;-71
2022/04/21 10:19:41;;;;;;;3.33;3.03;;;15.00;99.90;;;;;;5041812;28;20477;-72
2022/04/21 10:22:33;;;;;;;4.93;3.17;;;15.10;99.90;;;;;;5049446;28;20857;-71
2022/04/21 10:25:34;;;;;;;3.90;3.60;;;15.20;99.90;;;;;;5044350;28;20970;-72
2022/04/21 10:28:40;;;;;;;6.10;3.73;;;15.20;99.90;;;;;;5043374;28;21079;-72
2022/04/21 10:31:34;;;;;;;7.50;3.40;;;15.30;99.90;;;;;;5038895;28;20450;-71
2022/04/21 10:34:31;;;;;;;4.03;2.60;;;15.20;99.90;;;;;;5042888;28;20504;-72
2022/04/21 10:37:21;;;;;;;6.47;3.90;;;15.20;99.90;;;;;;5043371;28;20936;-71
2022/04/21 10:40:14;;;;;;;5.13;4.00;;;15.20;99.90;;;;;;5049185;28;20486;-71
2022/04/21 10:43:04;;;;;;;5.60;3.30;;;15.30;99.90;;;;;;5038498;28;20483;-71
2022/04/21 10:46:05;;;;;;;3.93;3.40;;;15.50;99.90;;;;;;5043148;28;20486;-71
2022/04/21 10:48:54;;;;;;;4.00;3.60;;;15.70;99.90;;;;;;5044895;28;20552;-71
2022/04/21 10:58:54;;;;;;;4.97;4.07;;;16.00;99.90;;;;;;5044968;28;20446;-71
2022/04/21 11:01:54;;;;;;;4.60;4.20;;;16.10;99.90;;;;;;5035775;28;20612;-71
2022/04/21 11:04:42;;;;;;;3.57;3.27;;;16.10;99.90;;;;;;5040634;28;20478;-71
2022/04/21 11:07:50;;;;;;;4.53;3.53;;;16.20;99.90;;;;;;5047551;28;20469;-71
2022/04/21 11:10:42;;;;;;;4.23;3.80;;;16.40;99.90;;;;;;5047482;28;20482;-71
2022/04/21 11:13:42;;;;;;;3.77;3.47;;;16.40;99.90;;;;;;5051908;28;20511;-72
2022/04/21 11:16:50;;;;;;;4.30;3.80;;;16.40;99.90;;;;;;5038748;28;20488;-72
2022/04/21 11:19:51;;;;;;;6.47;4.90;;;16.40;99.90;;;;;;5051998;28;20462;-73
2022/04/21 11:22:40;;;;;;;5.50;3.87;;;16.30;99.90;;;;;;5036038;28;20531;-72
2022/04/21 11:25:32;;;;;;;5.40;4.80;;;16.30;99.90;;;;;;5040238;28;20471;-74
2022/04/21 11:28:25;;;;;;;5.53;3.60;;;16.30;99.90;;;;;;5041644;28;20867;-72
2022/04/21 11:31:14;;;;;;;4.37;3.83;;;16.10;99.90;;;;;;5029256;28;20461;-71
2022/04/21 11:34:04;;;;;;;5.30;4.80;;;16.00;99.90;;;;;;5033691;28;20475;-72
2022/04/21 11:36:54;;;;;;;5.60;3.70;;;16.00;99.90;;;;;;5043495;28;20470;-72
2022/04/21 11:39:42;;;;;;;4.87;4.47;;;15.90;99.90;;;;;;5052704;28;20478;-73
2022/04/21 11:42:30;;;;;;;5.13;3.27;;;15.90;99.90;;;;;;5047932;28;20829;-72
2022/04/21 11:45:20;;;;;;;3.37;3.10;;;16.00;99.90;;;;;;5045125;28;20506;-73
2022/04/21 11:48:13;;;;;;;3.87;3.43;;;15.90;99.90;;;;;;5051423;28;20937;-72
2022/04/21 11:51:03;;;;;;;3.60;3.30;;;15.90;99.90;;;;;;5047917;28;20446;-72
2022/04/21 11:53:52;;;;;;;3.93;3.57;;;15.90;99.90;;;;;;5044511;28;21005;-72
2022/04/21 11:56:42;;;;;;;3.60;3.30;;;15.80;99.90;;;;;;5042165;28;20938;-72
2022/04/21 11:59:36;;;;;;;5.47;3.40;;;15.80;99.90;;;;;;5039182;28;21059;-72
2022/04/21 12:08:40;;;;;;;4.07;3.20;;;15.90;99.90;;;;;;5049412;28;20599;-71
2022/04/21 12:11:28;;;;;;;5.50;3.47;;;15.90;99.90;;;;;;5045855;28;20503;-71
2022/04/21 12:14:17;;;;;;;4.70;3.50;;;15.90;99.90;;;;;;5046012;28;20490;-71
2022/04/21 12:17:06;;;;;;;4.07;3.07;;;15.90;99.90;;;;;;5051887;28;20972;-71
2022/04/21 12:20:02;;;;;;;4.47;2.70;;;15.90;99.90;;;;;;5045619;28;20475;-71
2022/04/21 12:22:51;;;;;;;3.50;3.10;;;15.90;99.90;;;;;;5026823;28;20557;-71
2022/04/21 12:25:40;;;;;;;4.90;2.90;;;15.90;99.90;;;;;;5040381;28;20620;-71
2022/04/21 12:28:28;;;;;;;3.60;2.67;;;15.90;99.90;;;;;;5043563;28;21068;-71
2022/04/21 12:31:19;;;;;;;3.43;3.13;;;15.90;99.90;;;;;;5039420;28;20600;-71
2022/04/21 12:34:08;;;;;;;3.93;2.77;;;16.00;99.90;;;;;;5040153;28;20485;-71
2022/04/21 12:36:57;;;;;;;4.53;3.00;;;16.10;99.90;;;;;;5042696;28;20549;-71
2022/04/21 12:39:46;;;;;;;3.43;3.13;;;16.20;99.90;;;;;;5034294;28;20462;-72
2022/04/21 12:42:56;;;;;;;5.73;3.40;;;16.30;99.90;;;;;;5036883;28;20554;-71
2022/04/21 12:45:44;;;;;;;4.03;2.83;;;16.50;99.90;;;;;;5035048;28;20550;-71
2022/04/21 12:48:33;;;;;;;3.53;3.20;;;16.40;99.90;;;;;;5043083;28;20528;-73
2022/04/21 12:51:22;;;;;;;4.00;3.60;;;16.30;99.90;;;;;;5051001;28;20462;-72
2022/04/21 12:54:10;;;;;;;4.53;3.37;;;16.20;99.90;;;;;;5044190;28;21032;-72
2022/04/21 12:56:58;;;;;;;6.00;3.83;;;16.10;99.90;;;;;;5037451;28;20462;-71
2022/04/21 12:59:48;;;;;;;3.80;3.50;;;15.90;99.90;;;;;;5042805;28;20902;-71
2022/04/21 13:02:38;;;;;;;4.30;3.67;;;15.80;99.90;;;;;;5027677;28;20459;-71
2022/04/21 13:05:26;;;;;;;4.10;3.70;;;15.80;99.90;;;;;;5036513;28;20472;-71
2022/04/21 13:08:15;;;;;;;4.63;4.00;;;15.90;99.90;;;;;;5033542;28;20499;-71
2022/04/21 13:11:03;;;;;;;3.93;3.23;;;15.90;99.90;;;;;;5026039;28;20447;-71
2022/04/21 13:13:53;;;;;;;6.13;3.37;;;15.90;99.90;;;;;;5034276;28;20505;-72
2022/04/21 13:16:43;;;;;;;4.13;3.30;;;15.90;99.90;;;;;;5041661;28;20466;-71
2022/04/21 13:19:31;;;;;;;4.60;3.90;;;15.90;99.90;;;;;;5042043;28;20516;-71
2022/04/21 13:22:24;;;;;;;4.50;3.50;;;15.80;99.90;;;;;;5035214;28;20476;-71
2022/04/21 13:25:12;;;;;;;5.67;3.67;;;15.70;99.90;;;;;;5031338;28;20449;-71
2022/04/21 13:28:00;;;;;;;3.47;3.17;;;15.80;99.90;;;;;;5047466;28;20506;-70
2022/04/21 13:33:21;;;;;;;4.33;3.23;;;15.70;99.90;;;;;;5036044;28;20489;-71
2022/04/21 13:33:59;;;;;;;4.47;4.07;;;15.60;99.90;;;;;;5036076;28;20856;-71
2022/04/21 13:36:47;;;;;;;4.40;3.63;;;15.60;99.90;;;;;;5036390;28;20449;-71
2022/04/21 13:39:36;;;;;;;4.00;3.60;;;15.50;99.90;;;;;;5038832;28;20516;-71
2022/04/21 13:42:24;;;;;;;4.77;4.33;;;15.50;99.90;;;;;;5040057;28;20563;-71
2022/04/21 13:45:13;;;;;;;6.40;3.60;;;15.50;99.90;;;;;;5030129;28;20989;-71
2022/04/21 13:48:15;;;;;;;6.27;3.80;;;15.40;99.90;;;;;;5037223;28;20455;-71
2022/04/21 13:51:04;;;;;;;4.20;3.80;;;15.40;99.90;;;;;;5038329;28;20827;-71
2022/04/21 13:53:54;;;;;;;4.57;3.70;;;15.60;99.90;;;;;;5029971;28;20497;-72
2022/04/21 13:56:43;;;;;;;5.50;4.10;;;15.70;99.90;;;;;;5037301;28;20482;-70
2022/04/21 13:59:31;;;;;;;5.47;4.03;;;15.90;99.90;;;;;;5033899;28;20465;-71
2022/04/21 14:02:19;;;;;;;4.50;3.83;;;16.00;99.90;;;;;;5023752;28;20482;-70
2022/04/21 14:05:09;;;;;;;7.27;4.23;;;16.00;99.90;;;;;;5037458;28;20853;-70
2022/04/21 14:07:59;;;;;;;5.77;4.33;;;16.10;99.90;;;;;;5029247;28;20896;-71
2022/04/21 14:10:47;;;;;;;4.47;4.00;;;16.20;99.90;;;;;;5046706;28;20481;-72
2022/04/21 14:13:35;;;;;;;4.80;4.17;;;16.20;99.90;;;;;;5039140;28;20978;-71
2022/04/21 14:16:24;;;;;;;5.33;3.90;;;16.20;99.90;;;;;;5041961;28;20524;-71
2022/04/21 14:19:20;;;;;;;5.10;3.97;;;16.00;99.90;;;;;;5035403;28;20474;-69
2022/04/21 14:22:08;;;;;;;7.57;4.10;;;15.90;99.90;;;;;;5034797;28;20628;-70
2022/04/21 14:24:57;;;;;;;4.97;3.60;;;15.90;99.90;;;;;;5031784;28;20501;-70
2022/04/21 14:27:46;;;;;;;5.87;4.53;;;15.80;99.90;;;;;;5022351;28;20462;-70
2022/04/21 14:30:34;;;;;;;6.57;4.40;;;15.70;99.90;;;;;;5038679;28;20573;-70
2022/04/21 14:33:25;;;;;;;6.37;3.80;;;15.60;99.90;;;;;;5023362;28;20569;-70
2022/04/21 14:36:13;;;;;;;5.00;3.80;;;15.60;99.90;;;;;;5041464;28;20480;-70
2022/04/21 14:45:16;;;;;;;5.40;4.00;;;15.50;99.90;;;;;;5042579;28;20481;-71
2022/04/21 14:48:05;;;;;;;4.47;3.87;;;15.40;99.90;;;;;;5041988;28;21192;-72
2022/04/21 14:50:53;;;;;;;6.27;4.40;;;15.20;99.90;;;;;;5049837;28;20905;-70
2022/04/21 14:53:44;;;;;;;6.20;5.17;;;15.20;99.90;;;;;;5038145;28;20484;-71
2022/04/21 14:56:35;;;;;;;5.97;4.67;;;15.20;99.90;;;;;;5028914;28;20949;-72
2022/04/21 14:59:25;;;;;;;6.53;4.63;;;15.20;99.90;;;;;;5036803;28;20522;-71
2022/04/21 15:02:13;;;;;;;4.83;4.17;;;15.20;99.90;;;;;;5031366;28;20459;-70
2022/04/21 15:05:01;;;;;;;7.40;4.37;;;15.10;99.90;;;;;;5019775;28;20459;-70
2022/04/21 15:07:49;;;;;;;5.03;4.60;;;15.00;99.90;;;;;;5043414;28;20569;-70
2022/04/21 15:10:40;;;;;;;7.43;4.90;;;14.90;99.90;;;;;;5043588;28;20473;-70
2022/04/21 15:13:29;;;;;;;6.40;4.60;;;14.90;99.90;;;;;;5036037;28;20973;-70
2022/04/21 15:16:18;;;;;;;6.43;4.43;;;14.80;99.90;;;;;;5022308;28;20550;-70
2022/04/21 15:19:06;;;;;;;5.40;4.20;;;14.70;99.90;;;;;;5033826;28;21001;-70
2022/04/21 15:21:58;;;;;;;6.30;4.50;;;14.60;99.90;;;;;;5043425;28;20474;-70
2022/04/21 15:24:49;;;;;;;6.40;4.10;;;14.60;99.90;;;;;;5046471;28;20474;-69
2022/04/21 15:27:37;;;;;;;5.43;4.17;;;14.50;99.90;;;;;;5047913;28;20442;-70
2022/04/21 15:30:26;;;;;;;6.47;4.43;;;14.50;99.90;;;;;;5044844;28;20567;-69
2022/04/21 15:33:16;;;;;;;7.53;5.07;;;14.40;99.90;;;;;;5033404;28;20831;-70
2022/04/21 15:36:05;;;;;;;7.60;4.90;;;14.30;99.90;;;;;;5027176;28;20598;-70
2022/04/21 15:38:53;;;;;;;7.33;5.07;;;14.20;99.90;;;;;;5035855;28;20890;-70
2022/04/21 15:41:42;;;;;;;5.50;4.70;;;14.10;99.90;;;;;;5044163;28;20594;-69
2022/04/21 15:44:31;;;;;;;5.80;4.80;;;14.00;99.90;;;;;;5045417;28;20612;-69
2022/04/21 15:47:19;;;;;;;7.50;4.97;;;13.90;99.90;;;;;;5051256;28;20434;-71
2022/04/21 15:50:10;;;;;;;8.10;4.97;;;13.80;99.90;;;;;;5046076;28;20589;-69